Terminal Aerodrome Forecast
Issued by NWS

Home | Current Version | Previous Version | Text Only | Print | Product List | Glossary On
Versions: 1 2 3 4 5 6 7 8 9 10 11 12 13 14 15 16 17 18 19 20 21 22 23 24
000
FTUS41 KOKX 030538
TAFSWF
TAF
KSWF 030538Z 0306/0412 VRB03KT P6SM SCT050 SCT250
     FM031400 02004KT P6SM SKC
     FM031800 24005KT P6SM SCT250
     FM040000 15004KT P6SM BKN250
     FM040300 VRB02KT P6SM OVC130
      AMD NOT SKED=

USA.gov is the U.S. government's official web portal to all federal, state and local government web resources and services.